createdAt,value
2018-05-18T00:02:01.550Z,6.40
2018-05-18T00:04:29.054Z,6.50
2018-05-18T00:06:57.292Z,6.40
2018-05-18T00:09:24.822Z,6.40
2018-05-18T00:11:52.297Z,6.40
2018-05-18T00:14:19.791Z,6.40
2018-05-18T00:16:48.060Z,6.30
2018-05-18T00:19:15.555Z,6.30
2018-05-18T00:21:43.801Z,6.30
2018-05-18T00:24:11.272Z,6.20
2018-05-18T00:26:39.550Z,6.40
2018-05-18T00:29:07.785Z,6.30
2018-05-18T00:31:35.377Z,6.30
2018-05-18T00:34:02.850Z,6.30
2018-05-18T00:36:31.097Z,6.20
2018-05-18T00:38:58.566Z,6.20
2018-05-18T00:41:26.824Z,6.20
2018-05-18T00:43:54.310Z,6.10
2018-05-18T00:46:21.821Z,6.10
2018-05-18T00:48:49.318Z,6.20
2018-05-18T00:51:16.844Z,6.20
2018-05-18T00:53:44.299Z,6.30
2018-05-18T00:56:11.804Z,6.50
2018-05-18T00:58:39.323Z,6.60
2018-05-18T01:01:06.852Z,6.70
2018-05-18T01:03:34.454Z,6.90
2018-05-18T01:06:02.189Z,7.00
2018-05-18T01:08:29.661Z,7.10
2018-05-18T01:10:57.144Z,7.20
2018-05-18T01:13:24.613Z,7.20
2018-05-18T01:15:52.112Z,7.30
2018-05-18T01:18:20.357Z,7.30
2018-05-18T01:20:47.811Z,7.30
2018-05-18T01:23:15.331Z,7.30
2018-05-18T01:25:42.818Z,7.40
2018-05-18T01:28:10.447Z,7.50
2018-05-18T01:30:37.932Z,7.50
2018-05-18T01:33:05.444Z,7.60
2018-05-18T01:35:34.403Z,7.70
2018-05-18T01:38:01.918Z,7.70
2018-05-18T01:40:29.402Z,7.70
2018-05-18T01:42:56.888Z,7.80
2018-05-18T01:45:24.424Z,7.80
2018-05-18T01:47:51.920Z,7.80
2018-05-18T01:50:20.172Z,7.80
2018-05-18T01:52:47.654Z,7.80
2018-05-18T01:55:15.172Z,7.80
2018-05-18T01:57:42.644Z,7.80
2018-05-18T02:00:10.201Z,7.80
2018-05-18T02:02:38.016Z,7.80
2018-05-18T02:05:06.257Z,7.90
2018-05-18T02:07:33.731Z,7.90
2018-05-18T02:10:01.216Z,7.90
2018-05-18T02:12:28.687Z,7.90
2018-05-18T02:14:56.176Z,7.90
2018-05-18T02:17:23.655Z,7.90
2018-05-18T02:19:51.164Z,7.90
2018-05-18T02:22:18.646Z,7.90
2018-05-18T02:24:46.594Z,7.90
2018-05-18T02:27:14.323Z,7.90
2018-05-18T02:29:42.600Z,7.90
2018-05-18T02:32:10.829Z,7.90
2018-05-18T02:34:38.337Z,7.90
2018-05-18T02:37:06.616Z,8.00
2018-05-18T02:39:34.875Z,8.00
2018-05-18T02:42:02.358Z,7.90
2018-05-18T02:44:30.640Z,8.00
2018-05-18T02:46:58.225Z,8.00
2018-05-18T02:49:25.733Z,7.90
2018-05-18T02:51:53.208Z,7.90
2018-05-18T02:54:21.451Z,7.80
2018-05-18T02:56:48.932Z,7.80
2018-05-18T02:59:16.465Z,7.80
2018-05-18T03:01:43.959Z,7.80
2018-05-18T03:04:12.208Z,7.80
2018-05-18T03:06:39.993Z,7.80
2018-05-18T03:09:07.764Z,7.80
2018-05-18T03:11:36.025Z,7.80
2018-05-18T03:14:03.556Z,7.70
2018-05-18T03:16:31.033Z,7.70
2018-05-18T03:18:58.542Z,7.70
2018-05-18T03:21:26.028Z,7.70
2018-05-18T03:23:53.516Z,7.70
2018-05-18T03:26:20.995Z,7.70
2018-05-18T03:28:49.253Z,7.70
2018-05-18T03:31:17.593Z,7.70
2018-05-18T03:33:45.072Z,7.70
2018-05-18T03:36:12.566Z,7.70
2018-05-18T03:38:40.925Z,7.70
2018-05-18T03:41:08.421Z,7.70
2018-05-18T03:43:36.665Z,7.70
2018-05-18T03:46:04.138Z,7.70
2018-05-18T03:48:31.610Z,7.70
2018-05-18T03:50:59.119Z,7.70
2018-05-18T03:53:26.864Z,7.70
2018-05-18T03:55:54.333Z,7.70
2018-05-18T03:58:21.858Z,7.80
2018-05-18T04:00:50.080Z,7.80
2018-05-18T04:03:29.405Z,7.80
2018-05-18T04:06:08.785Z,7.80
2018-05-18T04:08:48.797Z,7.80
2018-05-18T04:11:16.264Z,7.80
2018-05-18T04:13:43.785Z,7.80
2018-05-18T04:16:12.008Z,7.80
2018-05-18T04:18:39.591Z,7.80
2018-05-18T04:21:07.061Z,7.80
2018-05-18T04:23:35.318Z,7.90
2018-05-18T04:26:03.188Z,7.80
2018-05-18T04:28:30.774Z,7.80
2018-05-18T04:30:59.013Z,7.90
2018-05-18T04:33:26.516Z,7.90
2018-05-18T04:35:54.001Z,8.00
2018-05-18T04:38:21.488Z,7.90
2018-05-18T04:40:48.988Z,8.00
2018-05-18T04:43:17.337Z,8.00
2018-05-18T04:45:45.227Z,8.00
2018-05-18T04:48:13.474Z,8.10
2018-05-18T04:50:40.961Z,8.10
2018-05-18T04:53:08.485Z,8.10
2018-05-18T04:55:35.984Z,8.00
2018-05-18T04:58:04.213Z,8.10
2018-05-18T05:00:31.728Z,8.10
2018-05-18T05:02:59.206Z,8.20
2018-05-18T05:05:26.816Z,8.20
2018-05-18T05:07:54.213Z,8.30
2018-05-18T05:10:21.742Z,8.30
2018-05-18T05:12:50.709Z,8.10
2018-05-18T05:15:18.495Z,8.10
2018-05-18T05:17:46.157Z,8.20
2018-05-18T05:20:13.702Z,8.20
2018-05-18T05:22:41.186Z,8.30
2018-05-18T05:25:09.605Z,8.50
2018-05-18T05:27:37.097Z,8.50
2018-05-18T05:30:04.629Z,8.60
2018-05-18T05:32:32.108Z,8.70
2018-05-18T05:34:59.589Z,9.00
2018-05-18T05:37:27.082Z,8.90
2018-05-18T05:39:55.323Z,9.60
2018-05-18T05:42:23.122Z,9.60
2018-05-18T05:44:50.596Z,9.60
2018-05-18T05:47:18.089Z,9.70
2018-05-18T05:49:45.638Z,9.70
2018-05-18T05:52:13.113Z,9.60
2018-05-18T05:54:40.615Z,9.70
2018-05-18T05:57:08.873Z,9.80
2018-05-18T05:59:36.344Z,9.80
2018-05-18T06:02:04.564Z,9.90
2018-05-18T06:04:32.289Z,9.80
2018-05-18T06:07:00.539Z,9.90
2018-05-18T06:09:28.036Z,9.90
2018-05-18T06:11:56.290Z,10.30
2018-05-18T06:14:23.774Z,10.20
2018-05-18T06:16:51.257Z,11.10
2018-05-18T06:19:18.761Z,10.50
2018-05-18T06:21:47.368Z,10.70
2018-05-18T06:24:15.693Z,10.50
2018-05-18T06:26:43.252Z,10.40
2018-05-18T06:29:10.808Z,10.70
2018-05-18T06:31:38.271Z,11.90
2018-05-18T06:34:05.756Z,12.00
2018-05-18T06:36:33.270Z,12.10
2018-05-18T06:39:00.765Z,11.90
2018-05-18T06:41:28.245Z,11.60
2018-05-18T06:43:55.745Z,11.20
2018-05-18T06:46:23.349Z,11.00
2018-05-18T06:48:50.848Z,11.10
2018-05-18T06:51:18.352Z,10.90
2018-05-18T06:53:45.823Z,11.00
2018-05-18T06:56:13.310Z,11.40
2018-05-18T06:58:40.805Z,11.50
2018-05-18T07:01:08.292Z,11.50
2018-05-18T07:03:35.782Z,11.30
2018-05-18T07:06:04.116Z,11.10
2018-05-18T07:08:31.590Z,11.10
2018-05-18T07:10:59.128Z,11.40
2018-05-18T07:13:26.595Z,11.60
2018-05-18T07:15:54.096Z,13.00
2018-05-18T07:18:22.342Z,14.90
2018-05-18T07:20:49.857Z,14.90
2018-05-18T07:23:17.327Z,13.70
2018-05-18T07:25:44.789Z,13.90
2018-05-18T07:28:12.323Z,14.60
2018-05-18T07:30:39.864Z,15.20
2018-05-18T07:33:07.337Z,16.50
2018-05-18T07:35:35.585Z,15.90
2018-05-18T07:38:03.367Z,15.90
2018-05-18T07:40:31.605Z,14.10
2018-05-18T07:42:59.089Z,14.10
2018-05-18T07:45:26.618Z,14.10
2018-05-18T07:47:54.089Z,15.90
2018-05-18T07:50:21.571Z,17.80
2018-05-18T07:52:49.328Z,18.10
2018-05-18T07:55:16.792Z,17.50
2018-05-18T07:57:44.273Z,18.50
2018-05-18T08:00:11.786Z,19.10
2018-05-18T08:02:39.257Z,18.90
2018-05-18T08:05:06.745Z,18.20
2018-05-18T08:07:35.003Z,15.50
2018-05-18T08:10:02.489Z,15.50
2018-05-18T08:12:29.972Z,14.50
2018-05-18T08:14:57.828Z,14.50
2018-05-18T08:17:25.240Z,14.70
2018-05-18T08:19:52.752Z,16.10
2018-05-18T08:22:20.208Z,18.00
2018-05-18T08:24:47.722Z,17.40
2018-05-18T08:27:22.636Z,16.80
2018-05-18T08:29:50.364Z,15.90
2018-05-18T08:32:18.090Z,15.60
2018-05-18T08:34:45.574Z,15.30
2018-05-18T08:37:13.841Z,15.30
2018-05-18T08:39:42.347Z,15.20
2018-05-18T08:42:09.832Z,15.20
2018-05-18T08:44:37.314Z,15.60
2018-05-18T08:47:04.790Z,15.60
2018-05-18T08:49:33.077Z,17.70
2018-05-18T08:52:01.308Z,18.30
2018-05-18T08:54:28.796Z,18.20
2018-05-18T08:56:56.527Z,17.40
2018-05-18T08:59:24.062Z,16.70
2018-05-18T09:01:52.200Z,18.20
2018-05-18T09:04:19.724Z,19.40
2018-05-18T09:06:47.444Z,20.20
2018-05-18T09:09:15.050Z,20.20
2018-05-18T09:11:43.365Z,19.50
2018-05-18T09:14:11.622Z,19.70
2018-05-18T09:16:40.451Z,19.70
2018-05-18T09:19:08.937Z,18.40
2018-05-18T09:21:36.610Z,18.40
2018-05-18T09:24:04.064Z,19.00
2018-05-18T09:26:31.665Z,19.60
2018-05-18T09:29:00.149Z,20.90
2018-05-18T09:31:27.736Z,21.70
2018-05-18T09:33:55.251Z,20.70
2018-05-18T09:36:23.178Z,19.70
2018-05-18T09:38:51.467Z,20.20
2018-05-18T09:41:19.716Z,20.60
2018-05-18T09:43:47.189Z,20.50
2018-05-18T09:46:15.431Z,20.90
2018-05-18T09:48:42.920Z,20.90
2018-05-18T09:51:11.279Z,20.40
2018-05-18T09:53:39.077Z,20.40
2018-05-18T09:56:07.309Z,18.20
2018-05-18T09:58:34.969Z,18.20
2018-05-18T10:01:03.549Z,19.70
2018-05-18T10:03:31.272Z,21.60
2018-05-18T10:05:59.694Z,21.90
2018-05-18T10:08:27.240Z,21.40
2018-05-18T10:10:54.720Z,19.90
2018-05-18T10:13:22.240Z,19.90
2018-05-18T10:15:49.871Z,20.60
2018-05-18T10:18:17.780Z,19.60
2018-05-18T10:20:45.300Z,20.60
2018-05-18T10:23:12.801Z,21.80
2018-05-18T10:25:40.450Z,22.20
2018-05-18T10:28:08.149Z,21.70
2018-05-18T10:30:36.501Z,21.40
2018-05-18T10:33:04.015Z,21.20
2018-05-18T10:35:31.494Z,22.30
2018-05-18T10:37:59.748Z,21.00
2018-05-18T10:40:27.227Z,21.00
2018-05-18T10:42:55.619Z,20.00
2018-05-18T10:45:23.963Z,20.20
2018-05-18T10:47:51.449Z,20.20
2018-05-18T10:50:19.430Z,19.00
2018-05-18T10:52:46.906Z,19.00
2018-05-18T10:55:14.416Z,18.70
2018-05-18T10:57:41.895Z,19.00
2018-05-18T11:00:10.196Z,19.90
2018-05-18T11:02:37.701Z,19.90
2018-05-18T11:05:05.245Z,20.00
2018-05-18T11:07:32.746Z,19.50
2018-05-18T11:10:00.994Z,19.10
2018-05-18T11:12:28.510Z,19.10
2018-05-18T11:14:56.911Z,19.30
2018-05-18T11:17:24.410Z,19.00
2018-05-18T11:19:52.489Z,18.80
2018-05-18T11:22:20.765Z,18.70
2018-05-18T11:24:48.252Z,18.70
2018-05-18T11:27:15.902Z,18.60
2018-05-18T11:29:44.618Z,18.00
2018-05-18T11:32:12.107Z,18.00
2018-05-18T11:34:39.588Z,18.20
2018-05-18T11:37:07.113Z,18.70
2018-05-18T11:39:34.594Z,18.50
2018-05-18T11:42:02.053Z,18.30
2018-05-18T11:44:29.532Z,18.00
2018-05-18T11:46:56.995Z,17.20
2018-05-18T11:49:25.274Z,18.30
2018-05-18T11:51:52.846Z,18.30
2018-05-18T11:54:20.358Z,17.80
2018-05-18T11:56:47.830Z,18.10
2018-05-18T11:59:15.304Z,18.20
2018-05-18T12:01:43.563Z,17.80
2018-05-18T12:04:11.154Z,17.80
2018-05-18T12:06:39.407Z,17.00
2018-05-18T12:09:06.909Z,16.90
2018-05-18T12:11:34.433Z,17.70
2018-05-18T12:14:01.980Z,17.90
2018-05-18T12:16:29.411Z,18.10
2018-05-18T12:18:57.094Z,17.80
2018-05-18T12:21:24.586Z,17.50
2018-05-18T12:23:52.837Z,17.40
2018-05-18T12:26:20.344Z,17.30
2018-05-18T12:28:47.844Z,17.60
2018-05-18T12:31:15.337Z,17.70
2018-05-18T12:33:42.832Z,17.80
2018-05-18T12:36:10.327Z,17.30
2018-05-18T12:38:37.853Z,17.40
2018-05-18T12:41:05.337Z,16.20
2018-05-18T12:43:32.961Z,16.70
2018-05-18T12:46:00.525Z,17.00
2018-05-18T12:48:28.040Z,17.40
2018-05-18T12:50:55.577Z,17.50
2018-05-18T12:53:23.070Z,17.40
2018-05-18T12:55:50.568Z,17.80
2018-05-18T12:58:18.089Z,17.70
2018-05-18T13:00:45.549Z,17.70
2018-05-18T13:03:13.804Z,17.10
2018-05-18T13:05:41.281Z,17.10
2018-05-18T13:08:08.870Z,16.90
2018-05-18T13:10:36.270Z,17.10
2018-05-18T13:13:03.932Z,17.30
2018-05-18T13:15:31.418Z,17.30
2018-05-18T13:17:59.040Z,17.60
2018-05-18T13:20:26.538Z,17.30
2018-05-18T13:22:54.032Z,17.40
2018-05-18T13:25:21.500Z,17.50
2018-05-18T13:27:48.996Z,17.40
2018-05-18T13:30:16.526Z,17.00
2018-05-18T13:32:44.029Z,17.10
2018-05-18T13:35:11.536Z,17.40
2018-05-18T13:37:39.069Z,17.60
2018-05-18T13:40:07.361Z,17.30
2018-05-18T13:42:35.602Z,17.60
2018-05-18T13:45:03.199Z,17.60
2018-05-18T13:47:30.643Z,17.70
2018-05-18T13:49:59.025Z,17.80
2018-05-18T13:52:27.322Z,17.10
2018-05-18T13:54:54.842Z,17.10
2018-05-18T13:57:22.347Z,17.50
2018-05-18T13:59:49.824Z,17.60
2018-05-18T14:02:17.312Z,17.80
2018-05-18T14:04:44.823Z,18.30
2018-05-18T14:07:12.335Z,18.20
2018-05-18T14:09:40.606Z,17.70
2018-05-18T14:12:08.248Z,17.60
2018-05-18T14:14:35.848Z,17.80
2018-05-18T14:17:03.450Z,17.50
2018-05-18T14:19:30.973Z,17.60
2018-05-18T14:21:59.082Z,17.30
2018-05-18T14:24:26.571Z,17.70
2018-05-18T14:26:54.093Z,17.20
2018-05-18T14:29:21.576Z,17.00
2018-05-18T14:31:49.165Z,16.80
2018-05-18T14:34:17.409Z,17.00
2018-05-18T14:36:45.013Z,17.00
2018-05-18T14:39:12.543Z,17.20
2018-05-18T14:41:40.061Z,16.90
2018-05-18T14:44:10.467Z,17.70
2018-05-18T14:46:37.996Z,17.60
2018-05-18T14:49:05.481Z,17.50
2018-05-18T14:51:33.025Z,17.30
2018-05-18T14:54:03.701Z,17.10
2018-05-18T14:56:32.084Z,17.20
2018-05-18T14:59:00.368Z,17.00
2018-05-18T15:01:27.896Z,17.00
2018-05-18T15:03:57.694Z,16.90
2018-05-18T15:06:26.274Z,16.90
2018-05-18T15:08:55.062Z,17.00
2018-05-18T15:11:25.033Z,16.90
2018-05-18T15:13:55.311Z,16.50
2018-05-18T15:16:27.245Z,16.60
2018-05-18T15:18:56.700Z,16.50
2018-05-18T15:21:30.548Z,17.10
2018-05-18T15:24:02.044Z,17.10
2018-05-18T15:26:29.613Z,17.10
2018-05-18T15:28:57.139Z,17.10
2018-05-18T15:31:24.609Z,17.10
2018-05-18T15:33:52.099Z,17.10
2018-05-18T15:36:20.373Z,17.00
2018-05-18T15:38:48.637Z,17.00
2018-05-18T15:41:16.173Z,17.00
2018-05-18T15:43:43.982Z,17.10
2018-05-18T15:46:12.242Z,17.20
2018-05-18T15:48:39.713Z,17.20
2018-05-18T15:51:08.033Z,17.20
2018-05-18T15:53:35.502Z,17.10
2018-05-18T15:56:03.034Z,17.00
2018-05-18T15:58:30.509Z,17.00
2018-05-18T16:00:58.023Z,16.90
2018-05-18T16:03:25.493Z,17.00
2018-05-18T16:05:53.744Z,16.80
2018-05-18T16:08:21.235Z,16.80
2018-05-18T16:10:49.477Z,17.10
2018-05-18T16:13:16.967Z,17.10
2018-05-18T16:15:45.241Z,17.50
2018-05-18T16:18:13.515Z,17.80
2018-05-18T16:20:41.793Z,17.90
2018-05-18T16:23:10.024Z,17.30
2018-05-18T16:25:37.513Z,17.20
2018-05-18T16:28:05.876Z,17.60
2018-05-18T16:30:33.278Z,17.60
2018-05-18T16:33:01.588Z,17.40
2018-05-18T16:35:29.075Z,17.40
2018-05-18T16:37:56.548Z,17.50
2018-05-18T16:40:24.026Z,17.50
2018-05-18T16:42:52.376Z,17.60
2018-05-18T16:45:19.872Z,17.60
2018-05-18T16:47:47.423Z,17.50
2018-05-18T16:50:14.900Z,17.40
2018-05-18T16:52:42.441Z,17.30
2018-05-18T16:55:10.092Z,17.30
2018-05-18T16:57:37.624Z,17.30
2018-05-18T17:00:05.196Z,17.30
2018-05-18T17:02:32.740Z,17.30
2018-05-18T17:05:00.330Z,17.20
2018-05-18T17:07:27.807Z,17.00
2018-05-18T17:09:56.089Z,16.90
2018-05-18T17:12:24.342Z,16.80
2018-05-18T17:14:51.865Z,16.80
2018-05-18T17:17:19.333Z,16.90
2018-05-18T17:19:46.941Z,16.80
2018-05-18T17:22:15.507Z,16.80
2018-05-18T17:24:43.177Z,16.80
2018-05-18T17:27:10.685Z,17.00
2018-05-18T17:29:38.174Z,16.90
2018-05-18T17:32:05.691Z,16.80
2018-05-18T17:34:33.272Z,16.70
2018-05-18T17:37:00.811Z,16.50
2018-05-18T17:39:28.304Z,16.50
2018-05-18T17:41:55.826Z,16.40
2018-05-18T17:44:23.309Z,16.30
2018-05-18T17:46:50.799Z,16.40
2018-05-18T17:49:18.322Z,16.20
2018-05-18T17:51:45.822Z,16.10
2018-05-18T17:54:13.337Z,16.00
2018-05-18T17:56:40.828Z,16.00
2018-05-18T17:59:08.430Z,16.00
2018-05-18T18:01:36.701Z,15.80
2018-05-18T18:04:05.582Z,15.80
2018-05-18T18:06:33.477Z,15.80
2018-05-18T18:09:01.101Z,15.80
2018-05-18T18:11:29.644Z,15.80
2018-05-18T18:13:58.017Z,15.60
2018-05-18T18:16:28.478Z,15.60
2018-05-18T18:18:55.992Z,15.60
2018-05-18T18:21:23.601Z,15.40
2018-05-18T18:23:51.093Z,15.40
2018-05-18T18:26:19.395Z,15.20
2018-05-18T18:28:47.054Z,15.10
2018-05-18T18:31:14.482Z,15.10
2018-05-18T18:33:41.965Z,15.00
2018-05-18T18:36:09.616Z,14.90
2018-05-18T18:38:37.118Z,14.90
2018-05-18T18:41:04.614Z,14.80
2018-05-18T18:43:32.400Z,14.70
2018-05-18T18:46:00.652Z,14.50
2018-05-18T18:48:28.129Z,14.50
2018-05-18T18:50:56.398Z,14.40
2018-05-18T18:53:23.924Z,14.40
2018-05-18T18:55:51.413Z,14.40
2018-05-18T18:58:18.994Z,14.40
2018-05-18T19:00:47.509Z,14.30
2018-05-18T19:03:15.078Z,14.30
2018-05-18T19:05:42.574Z,14.30
2018-05-18T19:08:10.372Z,14.20
2018-05-18T19:10:38.250Z,14.10
2018-05-18T19:13:06.942Z,13.80
2018-05-18T19:15:34.426Z,13.80
2018-05-18T19:18:02.018Z,13.70
2018-05-18T19:20:29.562Z,13.60
2018-05-18T19:22:57.357Z,13.50
2018-05-18T19:25:25.654Z,13.30
2018-05-18T19:27:53.183Z,13.20
2018-05-18T19:30:20.671Z,13.20
2018-05-18T19:32:48.237Z,13.00
2018-05-18T19:35:15.957Z,12.90
2018-05-18T19:37:44.984Z,12.80
2018-05-18T19:40:13.656Z,12.80
2018-05-18T19:42:41.309Z,12.80
2018-05-18T19:45:08.776Z,12.70
2018-05-18T19:47:36.281Z,12.60
2018-05-18T19:50:03.790Z,12.50
2018-05-18T19:52:31.292Z,12.40
2018-05-18T19:54:58.773Z,12.30
2018-05-18T19:57:26.321Z,12.20
2018-05-18T19:59:54.585Z,12.10
2018-05-18T20:02:22.111Z,12.00
2018-05-18T20:04:50.381Z,11.90
2018-05-18T20:07:18.172Z,11.90
2018-05-18T20:09:46.439Z,11.70
2018-05-18T20:12:13.947Z,11.60
2018-05-18T20:14:41.452Z,11.60
2018-05-18T20:17:10.903Z,11.40
2018-05-18T20:19:38.662Z,11.40
2018-05-18T20:22:06.146Z,11.40
2018-05-18T20:24:33.677Z,11.30
2018-05-18T20:27:01.147Z,11.20
2018-05-18T20:29:28.664Z,11.20
2018-05-18T20:31:56.156Z,11.20
2018-05-18T20:34:23.940Z,11.20
2018-05-18T20:36:51.429Z,11.20
2018-05-18T20:39:18.952Z,11.10
2018-05-18T20:41:46.511Z,11.10
2018-05-18T20:44:13.978Z,11.00
2018-05-18T20:46:41.470Z,11.00
2018-05-18T20:49:09.441Z,10.90
2018-05-18T20:51:36.941Z,10.90
2018-05-18T20:54:04.420Z,10.80
2018-05-18T20:56:31.915Z,10.80
2018-05-18T20:58:59.776Z,10.70
2018-05-18T21:01:27.294Z,10.70
2018-05-18T21:03:54.849Z,10.70
2018-05-18T21:06:22.363Z,10.70
2018-05-18T21:08:50.187Z,10.60
2018-05-18T21:11:17.733Z,10.60
2018-05-18T21:13:45.213Z,10.60
2018-05-18T21:16:12.730Z,10.60
2018-05-18T21:18:41.000Z,10.60
2018-05-18T21:21:09.417Z,10.50
2018-05-18T21:23:36.958Z,10.60
2018-05-18T21:26:04.453Z,10.60
2018-05-18T21:28:31.960Z,10.40
2018-05-18T21:31:00.199Z,10.30
2018-05-18T21:33:27.769Z,10.30
2018-05-18T21:35:55.473Z,10.30
2018-05-18T21:38:23.731Z,10.20
2018-05-18T21:40:51.245Z,10.10
2018-05-18T21:43:18.852Z,10.10
2018-05-18T21:45:47.476Z,10.00
2018-05-18T21:48:14.951Z,10.00
2018-05-18T21:50:42.520Z,10.00
2018-05-18T21:53:10.822Z,10.10
2018-05-18T21:55:39.106Z,10.00
2018-05-18T21:58:06.643Z,9.90
2018-05-18T22:00:34.192Z,9.90
2018-05-18T22:03:01.694Z,9.90
2018-05-18T22:05:30.758Z,9.80
2018-05-18T22:07:58.341Z,9.80
2018-05-18T22:10:25.898Z,9.80
2018-05-18T22:12:53.550Z,9.80
2018-05-18T22:15:21.076Z,9.80
2018-05-18T22:17:48.559Z,9.70
2018-05-18T22:20:16.052Z,9.70
2018-05-18T22:22:43.569Z,9.70
2018-05-18T22:25:11.061Z,9.70
2018-05-18T22:27:38.613Z,9.60
2018-05-18T22:30:06.129Z,9.50
2018-05-18T22:32:34.616Z,9.40
2018-05-18T22:35:02.146Z,9.40
2018-05-18T22:37:30.424Z,9.30
2018-05-18T22:39:58.738Z,9.30
2018-05-18T22:42:26.323Z,9.30
2018-05-18T22:44:53.853Z,9.20
2018-05-18T22:47:22.075Z,9.10
2018-05-18T22:49:49.836Z,9.00
2018-05-18T22:52:18.129Z,9.00
2018-05-18T22:54:45.594Z,8.90
2018-05-18T22:57:14.217Z,9.00
2018-05-18T22:59:41.705Z,8.90
2018-05-18T23:02:09.201Z,8.90
2018-05-18T23:04:37.427Z,8.80
2018-05-18T23:07:04.959Z,8.80
2018-05-18T23:09:32.421Z,8.80
2018-05-18T23:11:59.895Z,8.70
2018-05-18T23:14:27.408Z,8.70
2018-05-18T23:16:55.678Z,8.70
2018-05-18T23:19:23.996Z,8.60
2018-05-18T23:21:51.487Z,8.60
2018-05-18T23:24:18.998Z,8.50
2018-05-18T23:26:47.237Z,8.50
2018-05-18T23:29:15.290Z,8.50
2018-05-18T23:31:42.883Z,8.50
2018-05-18T23:34:11.129Z,8.40
2018-05-18T23:36:38.601Z,8.40
2018-05-18T23:39:06.844Z,8.40
2018-05-18T23:41:34.453Z,8.40
2018-05-18T23:44:01.944Z,8.40
2018-05-18T23:46:29.424Z,8.40
2018-05-18T23:48:56.927Z,8.40
2018-05-18T23:51:24.410Z,8.40
2018-05-18T23:53:52.679Z,8.30
2018-05-18T23:56:20.959Z,8.20
2018-05-18T23:58:49.257Z,8.20
